createdAt,value
2023-03-29T00:03:52.067Z,100.00
2023-03-29T00:08:55.170Z,100.00
2023-03-29T00:13:57.957Z,100.00
2023-03-29T00:19:00.868Z,100.00
2023-03-29T00:24:03.972Z,100.00
2023-03-29T00:29:06.875Z,100.00
2023-03-29T00:34:09.982Z,100.00
2023-03-29T00:39:12.888Z,100.00
2023-03-29T00:44:34.780Z,100.00
2023-03-29T00:49:37.844Z,100.00
2023-03-29T00:54:43.729Z,100.00
2023-03-29T00:59:48.484Z,100.00
2023-03-29T01:05:16.053Z,100.00
2023-03-29T01:10:25.410Z,100.00
2023-03-29T01:15:29.525Z,100.00
2023-03-29T01:20:51.177Z,100.00
2023-03-29T01:26:01.302Z,100.00
2023-03-29T01:31:09.876Z,100.00
2023-03-29T01:36:17.522Z,100.00
2023-03-29T01:41:20.738Z,100.00
2023-03-29T01:46:43.994Z,100.00
2023-03-29T01:51:53.555Z,100.00
2023-03-29T01:56:58.622Z,100.00
2023-03-29T02:02:05.628Z,100.00
2023-03-29T02:07:10.839Z,100.00
2023-03-29T02:12:17.147Z,100.00
2023-03-29T02:17:20.003Z,100.00
2023-03-29T02:22:28.646Z,100.00
2023-03-29T02:27:31.905Z,100.00
2023-03-29T02:32:50.378Z,100.00
2023-03-29T02:37:56.221Z,100.00
2023-03-29T02:43:02.117Z,100.00
2023-03-29T02:48:08.247Z,100.00
2023-03-29T02:53:23.185Z,100.00
2023-03-29T02:58:26.817Z,100.00
2023-03-29T03:03:29.952Z,100.00
2023-03-29T03:08:33.225Z,100.00
2023-03-29T03:13:36.530Z,100.00
2023-03-29T03:18:39.337Z,100.00
2023-03-29T03:23:42.242Z,100.00
2023-03-29T03:28:45.961Z,100.00
2023-03-29T03:33:49.175Z,100.00
2023-03-29T03:38:53.385Z,100.00
2023-03-29T03:43:56.616Z,100.00
2023-03-29T03:48:59.719Z,100.00
2023-03-29T03:54:02.628Z,100.00
2023-03-29T03:59:05.680Z,100.00
2023-03-29T04:04:09.457Z,100.00
2023-03-29T04:09:13.190Z,100.00
2023-03-29T04:14:16.899Z,100.00
2023-03-29T04:19:20.182Z,100.00
2023-03-29T04:24:24.447Z,100.00
2023-03-29T04:29:29.196Z,100.00
2023-03-29T04:34:32.106Z,100.00
2023-03-29T04:39:35.117Z,100.00
2023-03-29T04:44:38.063Z,100.00
2023-03-29T04:49:41.438Z,100.00
2023-03-29T04:54:44.226Z,100.00
2023-03-29T04:59:47.144Z,100.00
2023-03-29T05:04:50.680Z,100.00
2023-03-29T05:09:53.969Z,100.00
2023-03-29T05:14:57.697Z,100.00
2023-03-29T05:20:01.500Z,100.00
2023-03-29T05:25:05.481Z,100.00
2023-03-29T05:30:09.180Z,100.00
2023-03-29T05:35:12.546Z,100.00
2023-03-29T05:40:15.876Z,100.00
2023-03-29T05:45:19.260Z,100.00
2023-03-29T05:50:22.310Z,100.00
2023-03-29T05:55:25.184Z,100.00
2023-03-29T06:00:30.341Z,100.00
2023-03-29T06:05:35.353Z,100.00
2023-03-29T06:10:39.765Z,100.00
2023-03-29T06:15:42.637Z,100.00
2023-03-29T06:20:49.442Z,100.00
2023-03-29T06:25:52.371Z,100.00
2023-03-29T06:31:04.127Z,100.00
2023-03-29T06:36:08.334Z,100.00
2023-03-29T06:41:11.830Z,100.00
2023-03-29T06:46:16.263Z,100.00
2023-03-29T06:51:21.209Z,100.00
2023-03-29T06:56:26.466Z,100.00
2023-03-29T07:01:29.341Z,100.00
2023-03-29T07:06:32.200Z,100.00
2023-03-29T07:11:35.914Z,100.00
2023-03-29T07:16:39.185Z,100.00
2023-03-29T07:21:42.877Z,100.00
2023-03-29T07:27:00.080Z,100.00
2023-03-29T07:32:06.632Z,100.00
2023-03-29T07:37:09.518Z,100.00
2023-03-29T07:42:12.474Z,100.00
2023-03-29T07:47:15.708Z,100.00
2023-03-29T07:52:18.934Z,100.00
2023-03-29T07:57:23.845Z,100.00
2023-03-29T08:02:27.471Z,100.00
2023-03-29T08:07:30.497Z,100.00
2023-03-29T08:12:33.378Z,100.00
2023-03-29T08:17:36.944Z,100.00
2023-03-29T08:22:40.584Z,100.00
2023-03-29T08:27:43.594Z,99.88
2023-03-29T08:32:49.311Z,99.30
2023-03-29T08:37:54.817Z,95.43
2023-03-29T08:43:19.850Z,94.81
2023-03-29T08:48:29.763Z,92.17
2023-03-29T08:53:44.407Z,88.20
2023-03-29T08:58:50.571Z,89.05
2023-03-29T09:04:00.464Z,87.15
2023-03-29T09:09:11.289Z,84.75
2023-03-29T09:14:30.060Z,83.65
2023-03-29T09:20:05.129Z,78.87
2023-03-29T09:25:27.542Z,72.71
2023-03-29T09:30:49.458Z,73.89
2023-03-29T09:36:04.613Z,69.66
2023-03-29T09:41:23.541Z,66.66
2023-03-29T09:46:32.829Z,65.22
2023-03-29T09:51:39.259Z,63.68
2023-03-29T09:56:45.963Z,63.64
2023-03-29T10:01:49.174Z,62.30
2023-03-29T10:06:52.805Z,60.75
2023-03-29T10:11:57.284Z,63.49
2023-03-29T10:17:00.427Z,62.15
2023-03-29T10:22:22.067Z,61.00
2023-03-29T10:27:28.179Z,57.31
2023-03-29T10:32:36.325Z,56.12
2023-03-29T10:37:50.534Z,55.71
2023-03-29T10:42:57.876Z,53.08
2023-03-29T10:48:01.732Z,52.60
2023-03-29T10:53:30.078Z,53.21
2023-03-29T10:59:09.410Z,52.83
2023-03-29T11:04:46.772Z,52.64
2023-03-29T11:10:11.324Z,51.71
2023-03-29T11:15:32.698Z,52.88
2023-03-29T11:21:02.246Z,53.65
2023-03-29T11:26:28.441Z,51.88
2023-03-29T11:31:31.341Z,52.35
2023-03-29T11:36:50.602Z,53.21
2023-03-29T11:42:00.035Z,48.44
2023-03-29T11:47:11.487Z,46.43
2023-03-29T11:52:36.912Z,45.91
2023-03-29T11:57:53.886Z,46.36
2023-03-29T12:03:07.680Z,42.94
2023-03-29T12:08:24.986Z,42.50
2023-03-29T12:13:36.847Z,43.16
2023-03-29T12:18:47.857Z,41.49
2023-03-29T12:23:52.015Z,39.97
2023-03-29T12:29:09.768Z,41.05
2023-03-29T12:34:15.248Z,41.31
2023-03-29T12:39:20.415Z,42.77
2023-03-29T12:44:24.380Z,43.88
2023-03-29T12:49:32.861Z,41.91
2023-03-29T12:54:35.706Z,43.39
2023-03-29T12:59:43.865Z,42.32
2023-03-29T13:04:55.867Z,42.83
2023-03-29T13:10:05.351Z,41.75
2023-03-29T13:15:24.838Z,41.19
2023-03-29T13:21:00.001Z,41.91
2023-03-29T13:26:22.175Z,42.81
2023-03-29T13:31:52.534Z,43.53
2023-03-29T13:36:57.916Z,41.78
2023-03-29T13:42:19.928Z,42.22
2023-03-29T13:47:25.730Z,42.58
2023-03-29T13:52:37.121Z,43.84
2023-03-29T13:57:56.875Z,42.52
2023-03-29T14:03:02.275Z,42.42
2023-03-29T14:08:08.888Z,43.23
2023-03-29T14:13:18.288Z,43.33
2023-03-29T14:18:24.084Z,44.55
2023-03-29T14:23:33.799Z,43.91
2023-03-29T14:28:37.717Z,43.72
2023-03-29T14:33:40.682Z,43.45
2023-03-29T14:38:49.057Z,42.30
2023-03-29T14:43:52.040Z,42.86
2023-03-29T14:48:56.563Z,43.42
2023-03-29T14:54:03.309Z,42.50
2023-03-29T14:59:27.547Z,41.33
2023-03-29T15:04:37.634Z,40.80
2023-03-29T15:09:40.869Z,39.81
2023-03-29T15:14:44.023Z,40.70
2023-03-29T15:19:47.032Z,41.89
2023-03-29T15:24:50.245Z,43.65
2023-03-29T15:30:02.937Z,45.24
2023-03-29T15:35:09.360Z,46.52
2023-03-29T15:40:26.511Z,47.83
2023-03-29T15:45:29.501Z,49.07
2023-03-29T15:50:32.712Z,50.15
2023-03-29T15:55:35.824Z,51.45
2023-03-29T16:00:41.809Z,52.43
2023-03-29T16:05:45.501Z,53.79
2023-03-29T16:10:49.469Z,55.11
2023-03-29T16:15:52.451Z,55.14
2023-03-29T16:20:55.561Z,56.14
2023-03-29T16:25:59.497Z,57.10
2023-03-29T16:31:02.393Z,57.80
2023-03-29T16:36:05.912Z,58.69
2023-03-29T16:41:14.984Z,59.54
2023-03-29T16:46:17.934Z,60.51
2023-03-29T16:51:21.792Z,61.33
2023-03-29T16:56:24.706Z,61.85
2023-03-29T17:01:28.150Z,62.79
2023-03-29T17:06:32.797Z,63.30
2023-03-29T17:11:36.399Z,64.16
2023-03-29T17:16:39.457Z,64.73
2023-03-29T17:21:42.601Z,65.33
2023-03-29T17:26:45.968Z,66.02
2023-03-29T17:31:49.278Z,66.88
2023-03-29T17:36:53.544Z,67.98
2023-03-29T17:41:56.761Z,68.68
2023-03-29T17:47:01.085Z,69.44
2023-03-29T17:52:04.413Z,70.26
2023-03-29T17:57:07.621Z,70.82
2023-03-29T18:02:21.411Z,71.47
2023-03-29T18:07:24.588Z,72.17
2023-03-29T18:12:28.858Z,72.79
2023-03-29T18:17:31.750Z,73.43
2023-03-29T18:22:34.633Z,74.41
2023-03-29T18:27:39.134Z,75.41
2023-03-29T18:32:42.251Z,75.97
2023-03-29T18:37:45.200Z,76.62
2023-03-29T18:42:48.094Z,77.05
2023-03-29T18:47:51.220Z,77.26
2023-03-29T18:52:54.313Z,77.57
2023-03-29T18:57:57.217Z,77.73
2023-03-29T19:03:00.232Z,77.89
2023-03-29T19:08:05.865Z,78.35
2023-03-29T19:13:08.917Z,78.79
2023-03-29T19:18:12.007Z,79.05
2023-03-29T19:23:14.911Z,79.23
2023-03-29T19:28:17.815Z,79.53
2023-03-29T19:33:21.634Z,79.37
2023-03-29T19:38:24.852Z,79.37
2023-03-29T19:43:27.755Z,79.24
2023-03-29T19:48:30.843Z,79.02
2023-03-29T19:53:38.194Z,78.92
2023-03-29T19:58:42.309Z,79.00
2023-03-29T20:03:46.555Z,79.08
2023-03-29T20:08:49.837Z,79.16
2023-03-29T20:13:52.741Z,79.29
2023-03-29T20:18:56.542Z,79.28
2023-03-29T20:23:59.477Z,79.75
2023-03-29T20:29:03.420Z,80.36
2023-03-29T20:34:06.304Z,80.96
2023-03-29T20:39:09.622Z,81.55
2023-03-29T20:44:13.782Z,82.15
2023-03-29T20:49:17.675Z,82.94
2023-03-29T20:54:20.487Z,83.86
2023-03-29T20:59:23.491Z,84.73
2023-03-29T21:04:27.085Z,85.75
2023-03-29T21:09:31.239Z,86.17
2023-03-29T21:14:34.244Z,86.56
2023-03-29T21:19:39.195Z,87.30
2023-03-29T21:24:42.117Z,87.48
2023-03-29T21:29:45.313Z,87.22
2023-03-29T21:34:48.215Z,86.67
2023-03-29T21:39:51.117Z,85.98
2023-03-29T21:44:54.120Z,85.66
2023-03-29T21:49:57.015Z,85.43
2023-03-29T21:54:59.928Z,85.28
2023-03-29T22:00:05.177Z,85.48
2023-03-29T22:05:08.681Z,86.14
2023-03-29T22:10:12.557Z,86.50
2023-03-29T22:15:15.436Z,86.83
2023-03-29T22:20:18.606Z,87.47
2023-03-29T22:25:23.055Z,87.92
2023-03-29T22:30:25.898Z,88.08
2023-03-29T22:35:28.796Z,88.30
2023-03-29T22:40:33.437Z,88.60
2023-03-29T22:45:36.560Z,88.97
2023-03-29T22:50:42.975Z,88.69
2023-03-29T22:55:46.898Z,88.04
2023-03-29T23:00:50.097Z,87.47
2023-03-29T23:05:55.951Z,87.16
2023-03-29T23:10:59.369Z,86.79
2023-03-29T23:16:03.773Z,85.60
2023-03-29T23:21:08.969Z,84.44
2023-03-29T23:26:12.058Z,83.36
2023-03-29T23:31:18.375Z,82.69
2023-03-29T23:36:23.191Z,82.21
2023-03-29T23:41:30.861Z,82.05
2023-03-29T23:46:34.107Z,81.88
2023-03-29T23:51:39.249Z,81.51
2023-03-29T23:56:42.304Z,81.72
